createdAt,value
2022-12-11T00:01:59.270Z,100041.88
2022-12-11T00:04:27.550Z,100042.81
2022-12-11T00:06:56.649Z,100042.22
2022-12-11T00:09:24.585Z,100038.66
2022-12-11T00:11:52.363Z,100040.31
2022-12-11T00:14:20.074Z,100039.38
2022-12-11T00:16:49.548Z,100040.88
2022-12-11T00:19:17.410Z,100040.88
2022-12-11T00:21:45.749Z,100033.78
2022-12-11T00:24:14.901Z,100037.47
2022-12-11T00:26:42.801Z,100039.13
2022-12-11T00:29:14.528Z,100034.50
2022-12-11T00:31:42.847Z,100034.50
2022-12-11T00:34:12.028Z,100037.94
2022-12-11T00:36:40.424Z,100032.72
2022-12-11T00:39:08.274Z,100037.81
2022-12-11T00:41:37.392Z,100038.66
2022-12-11T00:44:05.407Z,100036.72
2022-12-11T00:46:33.097Z,100039.31
2022-12-11T00:49:00.997Z,100022.00
2022-12-11T00:51:29.054Z,100036.16
2022-12-11T00:53:56.761Z,100033.44
2022-12-11T00:56:25.336Z,100046.47
2022-12-11T00:58:54.413Z,100043.88
2022-12-11T01:01:24.450Z,100047.66
2022-12-11T01:03:53.742Z,100046.00
2022-12-11T01:06:23.661Z,100038.06
2022-12-11T01:09:13.279Z,100046.59
2022-12-11T01:11:41.505Z,100046.59
2022-12-11T01:14:11.572Z,100047.16
2022-12-11T01:16:39.459Z,100049.78
2022-12-11T01:19:07.370Z,100045.88
2022-12-11T01:21:35.066Z,100051.81
2022-12-11T01:24:02.901Z,100046.81
2022-12-11T01:26:30.776Z,100045.03
2022-12-11T01:28:58.738Z,100050.97
2022-12-11T01:31:27.774Z,100047.53
2022-12-11T01:33:55.902Z,100046.72
2022-12-11T01:36:24.536Z,100050.25
2022-12-11T01:38:53.566Z,100044.09
2022-12-11T01:41:22.467Z,100049.31
2022-12-11T01:44:02.030Z,100045.88
2022-12-11T01:46:33.171Z,100051.22
2022-12-11T01:49:03.361Z,100046.00
2022-12-11T01:51:34.260Z,100048.72
2022-12-11T01:54:07.194Z,100043.50
2022-12-11T01:56:36.409Z,100046.13
2022-12-11T01:59:07.605Z,100049.31
2022-12-11T02:01:43.326Z,100036.50
2022-12-11T02:04:16.922Z,100035.44
2022-12-11T02:06:47.774Z,100032.72
2022-12-11T02:09:18.156Z,100037.81
2022-12-11T02:11:54.360Z,100037.66
2022-12-11T02:14:30.219Z,100029.72
2022-12-11T02:17:05.301Z,100025.31
2022-12-11T02:19:49.423Z,100026.16
2022-12-11T02:22:27.341Z,100020.09
2022-12-11T02:25:12.660Z,100023.00
2022-12-11T02:27:46.845Z,100020.22
2022-12-11T02:30:17.751Z,100021.66
2022-12-11T02:32:48.884Z,100020.00
2022-12-11T02:35:21.250Z,100015.72
2022-12-11T02:37:50.841Z,100015.59
2022-12-11T02:40:23.896Z,100009.78
2022-12-11T02:42:53.478Z,100009.22
2022-12-11T02:45:23.963Z,100018.00
2022-12-11T02:47:53.558Z,100012.78
2022-12-11T02:50:24.476Z,100018.72
2022-12-11T02:52:56.931Z,100006.72
2022-12-11T02:55:27.350Z,100011.94
2022-12-11T02:58:01.072Z,100009.34
2022-12-11T03:00:30.376Z,100011.13
2022-12-11T03:02:58.728Z,100009.09
2022-12-11T03:05:27.161Z,100006.50
2022-12-11T03:07:55.008Z,100010.88
2022-12-11T03:10:23.246Z,100007.13
2022-12-11T03:12:54.195Z,100010.69
2022-12-11T03:15:24.642Z,100010.41
2022-12-11T03:18:02.091Z,100012.78
2022-12-11T03:20:38.676Z,100012.78
2022-12-11T03:23:10.662Z,100011.13
2022-12-11T03:25:45.475Z,100009.34
2022-12-11T03:28:17.010Z,100021.13
2022-12-11T03:30:46.442Z,100014.94
2022-12-11T03:33:21.751Z,100017.56
2022-12-11T03:35:53.311Z,100022.88
2022-12-11T03:38:26.122Z,100019.22
2022-12-11T03:40:57.275Z,100021.22
2022-12-11T03:43:27.364Z,100016.00
2022-12-11T03:45:56.427Z,100016.00
2022-12-11T03:48:28.009Z,100021.13
2022-12-11T03:50:56.747Z,100011.13
2022-12-11T03:53:27.057Z,100014.00
2022-12-11T03:55:58.169Z,100015.50
2022-12-11T03:58:25.993Z,100014.69
2022-12-11T04:00:53.686Z,100011.13
2022-12-11T04:03:21.461Z,100014.13
2022-12-11T04:05:52.593Z,100007.13
2022-12-11T04:08:21.770Z,100016.22
2022-12-11T04:11:10.220Z,100014.44
2022-12-11T04:13:38.069Z,100013.72
2022-12-11T04:16:05.218Z,100020.38
2022-12-11T04:18:50.605Z,100016.09
2022-12-11T04:21:39.695Z,100021.44
2022-12-11T04:24:17.168Z,100021.22
2022-12-11T04:26:45.991Z,100025.44
2022-12-11T04:29:14.402Z,100024.38
2022-12-11T04:31:42.171Z,100018.59
2022-12-11T04:34:10.353Z,100021.88
2022-12-11T04:36:39.453Z,100024.63
2022-12-11T04:39:07.241Z,100016.66
2022-12-11T04:41:35.653Z,100019.41
2022-12-11T04:44:03.432Z,100014.19
2022-12-11T04:46:31.581Z,100011.72
2022-12-11T04:49:02.055Z,100007.31
2022-12-11T04:51:29.975Z,100007.19
2022-12-11T04:53:59.467Z,100004.56
2022-12-11T04:56:27.165Z,100007.06
2022-12-11T04:58:54.961Z,100006.94
2022-12-11T05:01:23.903Z,100008.34
2022-12-11T05:03:51.928Z,100011.09
2022-12-11T05:06:19.709Z,100011.94
2022-12-11T05:08:47.447Z,100006.81
2022-12-11T05:11:17.470Z,100010.38
2022-12-11T05:13:46.276Z,100006.00
2022-12-11T05:16:16.435Z,100010.63
2022-12-11T05:18:44.225Z,100002.66
2022-12-11T05:21:13.750Z,100001.00
2022-12-11T05:23:41.822Z,99996.38
2022-12-11T05:26:12.934Z,99999.66
2022-12-11T05:28:42.081Z,99999.66
2022-12-11T05:31:13.988Z,99993.78
2022-12-11T05:33:41.861Z,99994.72
2022-12-11T05:36:14.679Z,99994.13
2022-12-11T05:38:42.468Z,99997.56
2022-12-11T05:41:10.215Z,99994.97
2022-12-11T05:43:38.494Z,100000.19
2022-12-11T05:46:08.732Z,99993.19
2022-12-11T05:48:37.349Z,99995.91
2022-12-11T05:51:06.475Z,100004.25
2022-12-11T05:53:34.449Z,99999.03
2022-12-11T05:56:03.721Z,99999.28
2022-12-11T05:58:31.651Z,100002.00
2022-12-11T06:00:59.763Z,100002.00
2022-12-11T06:03:29.287Z,100002.84
2022-12-11T06:05:56.991Z,99999.63
2022-12-11T06:08:24.715Z,99991.81
2022-12-11T06:10:52.449Z,99994.31
2022-12-11T06:13:20.232Z,99989.81
2022-12-11T06:15:48.038Z,99990.75
2022-12-11T06:18:15.730Z,99992.66
2022-12-11T06:20:44.841Z,99988.38
2022-12-11T06:23:12.984Z,99986.59
2022-12-11T06:25:40.869Z,99987.44
2022-12-11T06:28:08.609Z,99986.75
2022-12-11T06:30:37.548Z,99993.03
2022-12-11T06:33:07.636Z,99986.66
2022-12-11T06:35:41.726Z,99980.72
2022-12-11T06:38:11.526Z,99975.50
2022-12-11T06:40:39.361Z,99982.50
2022-12-11T06:43:07.035Z,99989.50
2022-12-11T06:45:34.850Z,99984.28
2022-12-11T06:48:02.696Z,99986.06
2022-12-11T06:50:30.408Z,99983.44
2022-12-11T06:52:58.364Z,99990.72
2022-12-11T06:55:27.451Z,99980.00
2022-12-11T06:57:55.109Z,99984.28
2022-12-11T07:00:22.869Z,99989.88
2022-12-11T07:02:51.888Z,99990.81
2022-12-11T07:05:19.715Z,99981.09
2022-12-11T07:07:47.913Z,99985.38
2022-12-11T07:10:16.613Z,99987.59
2022-12-11T07:12:45.634Z,99990.09
2022-12-11T07:15:13.729Z,99983.22
2022-12-11T07:17:41.764Z,99987.97
2022-12-11T07:20:10.782Z,99984.78
2022-12-11T07:22:44.686Z,99990.59
2022-12-11T07:25:14.305Z,99999.09
2022-12-11T07:27:42.579Z,99991.97
2022-12-11T07:30:12.998Z,99991.88
2022-12-11T07:32:40.770Z,99991.75
2022-12-11T07:35:09.495Z,99992.44
2022-12-11T07:37:38.151Z,99999.91
2022-12-11T07:40:06.842Z,99998.38
2022-12-11T07:42:34.597Z,100006.19
2022-12-11T07:45:02.896Z,100001.81
2022-12-11T07:47:31.987Z,100007.03
2022-12-11T07:49:59.660Z,100006.91
2022-12-11T07:52:27.474Z,100010.06
2022-12-11T07:54:55.239Z,100010.69
2022-12-11T07:57:22.969Z,100005.47
2022-12-11T07:59:50.640Z,100011.50
2022-12-11T08:02:18.390Z,100012.19
2022-12-11T08:04:47.460Z,100014.69
2022-12-11T08:07:15.135Z,100006.63
2022-12-11T08:09:42.827Z,100005.34
2022-12-11T08:12:10.542Z,100008.78
2022-12-11T08:14:38.690Z,100009.47
2022-12-11T08:17:06.396Z,100005.19
2022-12-11T08:19:34.618Z,100008.50
2022-12-11T08:22:03.653Z,100009.22
2022-12-11T08:24:31.374Z,100011.13
2022-12-11T08:26:59.090Z,100006.97
2022-12-11T08:29:26.794Z,100007.69
2022-12-11T08:31:54.831Z,100013.63
2022-12-11T08:34:22.485Z,100014.44
2022-12-11T08:36:50.252Z,100008.41
2022-12-11T08:39:19.668Z,100004.94
2022-12-11T08:41:47.407Z,100008.50
2022-12-11T08:44:16.946Z,100006.72
2022-12-11T08:46:45.038Z,100014.31
2022-12-11T08:49:12.925Z,100013.63
2022-12-11T08:51:40.615Z,100020.63
2022-12-11T08:54:08.472Z,100016.22
2022-12-11T08:56:37.509Z,100014.44
2022-12-11T08:59:06.352Z,100016.09
2022-12-11T09:01:36.402Z,100018.84
2022-12-11T09:04:04.265Z,100014.56
2022-12-11T09:06:34.228Z,100018.94
2022-12-11T09:09:02.679Z,100015.28
2022-12-11T09:11:32.898Z,100017.75
2022-12-11T09:14:07.327Z,100014.06
2022-12-11T09:16:39.626Z,100015.59
2022-12-11T09:19:09.240Z,100013.94
2022-12-11T09:21:36.953Z,100012.72
2022-12-11T09:24:06.431Z,100021.38
2022-12-11T09:26:34.197Z,100012.59
2022-12-11T09:29:03.712Z,100012.59
2022-12-11T09:31:32.886Z,100012.25
2022-12-11T09:34:02.174Z,100012.25
2022-12-11T09:36:30.038Z,100012.47
2022-12-11T09:39:01.430Z,100006.31
2022-12-11T09:41:40.812Z,100003.69
2022-12-11T09:44:24.931Z,100009.63
2022-12-11T09:46:53.396Z,100009.88
2022-12-11T09:49:29.741Z,99995.56
2022-12-11T09:52:09.982Z,99995.56
2022-12-11T09:54:37.846Z,100000.06
2022-12-11T09:57:21.014Z,99994.34
2022-12-11T10:00:05.719Z,99983.53
2022-12-11T10:02:45.150Z,99993.34
2022-12-11T10:05:22.201Z,99995.25
2022-12-11T10:08:00.557Z,100001.19
2022-12-11T10:10:42.872Z,99996.19
2022-12-11T10:13:23.190Z,99999.50
2022-12-11T10:15:58.499Z,99992.50
2022-12-11T10:18:29.096Z,99990.72
2022-12-11T10:20:56.973Z,99992.88
2022-12-11T10:23:30.605Z,99990.13
2022-12-11T10:26:06.982Z,99983.03
2022-12-11T10:28:36.251Z,99976.03
2022-12-11T10:31:13.763Z,99980.53
2022-12-11T10:33:50.882Z,99979.69
2022-12-11T10:36:23.788Z,99977.84
2022-12-11T10:38:52.038Z,99976.34
2022-12-11T10:41:24.392Z,99973.56
2022-12-11T10:43:54.028Z,99972.78
2022-12-11T10:46:25.225Z,99969.34
2022-12-11T10:48:55.339Z,99974.56
2022-12-11T10:51:26.071Z,99971.34
2022-12-11T10:53:57.179Z,99986.88
2022-12-11T10:56:29.244Z,99972.19
2022-12-11T10:58:59.294Z,99983.56
2022-12-11T11:01:31.145Z,99974.06
2022-12-11T11:04:03.464Z,99984.41
2022-12-11T11:06:31.575Z,99975.75
2022-12-11T11:09:01.200Z,99980.44
2022-12-11T11:11:33.827Z,99979.25
2022-12-11T11:14:13.364Z,99974.03
2022-12-11T11:16:44.682Z,99980.22
2022-12-11T11:19:21.423Z,99979.97
2022-12-11T11:21:52.121Z,99971.16
2022-12-11T11:24:28.755Z,99966.66
2022-12-11T11:27:12.802Z,99965.00
2022-12-11T11:29:41.808Z,99962.84
2022-12-11T11:32:20.478Z,99966.66
2022-12-11T11:34:48.198Z,99962.84
2022-12-11T11:37:34.560Z,99957.78
2022-12-11T11:40:07.968Z,99956.72
2022-12-11T11:42:44.787Z,99954.53
2022-12-11T11:45:17.345Z,99951.38
2022-12-11T11:47:56.007Z,99946.16
2022-12-11T11:50:27.008Z,99956.59
2022-12-11T11:53:02.886Z,99952.19
2022-12-11T11:55:42.122Z,99953.84
2022-12-11T11:58:16.334Z,99950.28
2022-12-11T12:00:44.418Z,99950.13
2022-12-11T12:03:17.266Z,99950.28
2022-12-11T12:05:53.335Z,99948.63
2022-12-11T12:08:35.250Z,99949.59
2022-12-11T12:11:09.254Z,99949.47
2022-12-11T12:13:50.293Z,99943.41
2022-12-11T12:16:54.357Z,99946.97
2022-12-11T12:19:32.700Z,99941.44
2022-12-11T12:22:09.969Z,99939.66
2022-12-11T12:24:49.278Z,99943.34
2022-12-11T12:27:51.116Z,99936.91
2022-12-11T12:30:16.120Z,99940.22
2022-12-11T12:32:51.128Z,99939.91
2022-12-11T12:35:32.214Z,99938.00
2022-12-11T12:38:06.758Z,99939.06
2022-12-11T12:40:40.775Z,99934.56
2022-12-11T12:43:28.054Z,99931.38
2022-12-11T12:46:03.997Z,99933.41
2022-12-11T12:48:32.220Z,99923.81
2022-12-11T12:51:01.784Z,99926.84
2022-12-11T12:53:34.178Z,99928.06
2022-12-11T12:56:04.368Z,99929.03
2022-12-11T12:58:42.359Z,99930.22
2022-12-11T13:01:15.891Z,99922.53
2022-12-11T13:03:55.159Z,99927.38
2022-12-11T13:06:34.157Z,99922.16
2022-12-11T13:09:14.584Z,99924.63
2022-12-11T13:11:42.753Z,99918.13
2022-12-11T13:14:28.028Z,99915.91
2022-12-11T13:17:08.092Z,99920.81
2022-12-11T13:19:42.081Z,99915.00
2022-12-11T13:22:24.197Z,99921.69
2022-12-11T13:25:01.538Z,99917.56
2022-12-11T13:27:38.956Z,99915.47
2022-12-11T13:30:09.396Z,99919.16
2022-12-11T13:32:37.810Z,99920.22
2022-12-11T13:35:07.105Z,99916.41
2022-12-11T13:37:41.186Z,99917.09
2022-12-11T13:40:23.398Z,99915.19
2022-12-11T13:42:54.471Z,99914.38
2022-12-11T13:45:26.891Z,99913.41
2022-12-11T13:47:56.101Z,99916.03
2022-12-11T13:50:29.390Z,99917.69
2022-12-11T13:53:00.640Z,99921.13
2022-12-11T13:55:30.909Z,99924.44
2022-12-11T13:57:59.334Z,99925.41
2022-12-11T14:00:30.120Z,99923.28
2022-12-11T14:03:01.958Z,99927.69
2022-12-11T14:05:30.406Z,99922.47
2022-12-11T14:08:09.998Z,99921.75
2022-12-11T14:10:38.533Z,99922.47
2022-12-11T14:13:13.503Z,99918.44
2022-12-11T14:15:46.141Z,99926.38
2022-12-11T14:18:18.946Z,99930.75
2022-12-11T14:20:46.958Z,99928.44
2022-12-11T14:23:19.823Z,99948.22
2022-12-11T14:25:53.694Z,99938.03
2022-12-11T14:28:22.588Z,99940.75
2022-12-11T14:30:52.894Z,99941.72
2022-12-11T14:33:26.702Z,99940.75
2022-12-11T14:35:56.835Z,99944.44
2022-12-11T14:38:30.084Z,99941.38
2022-12-11T14:41:00.586Z,99936.03
2022-12-11T14:43:32.346Z,99935.00
2022-12-11T14:46:04.716Z,99946.50
2022-12-11T14:48:38.838Z,99948.88
2022-12-11T14:51:09.697Z,99947.81
2022-12-11T14:53:42.829Z,99949.22
2022-12-11T14:56:18.519Z,99942.47
2022-12-11T14:58:53.793Z,99947.69
2022-12-11T15:01:26.783Z,99943.16
2022-12-11T15:04:05.361Z,99943.16
2022-12-11T15:06:34.787Z,99941.50
2022-12-11T15:09:20.357Z,99946.16
2022-12-11T15:11:49.782Z,99953.25
2022-12-11T15:14:20.276Z,99953.25
2022-12-11T15:16:50.221Z,99956.00
2022-12-11T15:19:23.005Z,99958.59
2022-12-11T15:21:51.337Z,99964.53
2022-12-11T15:24:39.164Z,99965.34
2022-12-11T15:27:07.554Z,99961.91
2022-12-11T15:29:37.151Z,99956.69
2022-12-11T15:32:18.966Z,99962.50
2022-12-11T15:34:48.805Z,99964.75
2022-12-11T15:37:25.269Z,99963.06
2022-12-11T15:39:56.020Z,99956.69
2022-12-11T15:42:28.023Z,99961.91
2022-12-11T15:44:56.743Z,99967.91
2022-12-11T15:47:26.417Z,99965.31
2022-12-11T15:49:56.235Z,99962.84
2022-12-11T15:52:24.254Z,99962.97
2022-12-11T15:54:53.929Z,99959.53
2022-12-11T15:57:24.854Z,99957.75
2022-12-11T15:59:55.255Z,99962.84
2022-12-11T16:02:24.224Z,99971.50
2022-12-11T16:04:52.081Z,99968.19
2022-12-11T16:07:22.219Z,99965.44
2022-12-11T16:09:50.251Z,99964.75
2022-12-11T16:12:19.537Z,99969.00
2022-12-11T16:14:47.632Z,99968.88
2022-12-11T16:17:16.586Z,99967.78
2022-12-11T16:19:45.425Z,99970.28
2022-12-11T16:22:16.449Z,99976.94
2022-12-11T16:24:44.454Z,99971.56
2022-12-11T16:27:12.287Z,99973.22
2022-12-11T16:29:42.803Z,99969.09
2022-12-11T16:32:11.096Z,99972.50
2022-12-11T16:34:42.018Z,99970.16
2022-12-11T16:37:10.982Z,99971.94
2022-12-11T16:39:42.594Z,99967.69
2022-12-11T16:42:10.434Z,99967.78
2022-12-11T16:44:43.707Z,99967.78
2022-12-11T16:47:13.385Z,99965.31
2022-12-11T16:49:44.170Z,99968.50
2022-12-11T16:52:11.932Z,99971.81
2022-12-11T16:54:39.759Z,99964.00
2022-12-11T16:57:07.594Z,99964.00
2022-12-11T16:59:37.385Z,99960.56
2022-12-11T17:02:08.366Z,99965.66
2022-12-11T17:04:39.572Z,99962.91
2022-12-11T17:07:09.638Z,99964.84
2022-12-11T17:09:37.410Z,99957.84
2022-12-11T17:12:05.681Z,99962.06
2022-12-11T17:14:36.894Z,99961.97
2022-12-11T17:17:04.652Z,99967.28
2022-12-11T17:19:32.413Z,99962.06
2022-12-11T17:22:04.764Z,99954.00
2022-12-11T17:24:35.216Z,99958.41
2022-12-11T17:27:02.994Z,99961.72
2022-12-11T17:29:30.771Z,99959.81
2022-12-11T17:31:58.644Z,99965.03
2022-12-11T17:34:26.366Z,99966.66
2022-12-11T17:36:54.097Z,99966.56
2022-12-11T17:39:23.266Z,99959.66
2022-12-11T17:41:52.449Z,99970.00
2022-12-11T17:44:20.383Z,99966.44
2022-12-11T17:46:48.280Z,99963.25
2022-12-11T17:49:16.958Z,99968.72
2022-12-11T17:51:45.902Z,99973.69
2022-12-11T17:54:13.580Z,99958.16
2022-12-11T17:56:45.489Z,99964.06
2022-12-11T17:59:13.329Z,99965.16
2022-12-11T18:01:43.774Z,99958.53
2022-12-11T18:04:11.699Z,99963.72
2022-12-11T18:06:39.488Z,99959.47
2022-12-11T18:09:07.423Z,99948.91
2022-12-11T18:11:38.016Z,99958.66
2022-12-11T18:14:09.150Z,99960.44
2022-12-11T18:16:42.505Z,99957.00
2022-12-11T18:19:17.331Z,99957.84
2022-12-11T18:21:47.554Z,99955.22
2022-12-11T18:24:15.504Z,99958.53
2022-12-11T18:26:43.793Z,99963.72
2022-12-11T18:29:13.266Z,99959.63
2022-12-11T18:31:42.893Z,99958.06
2022-12-11T18:34:11.328Z,99955.34
2022-12-11T18:36:40.829Z,99950.00
2022-12-11T18:39:08.623Z,99954.25
2022-12-11T18:41:36.363Z,99957.13
2022-12-11T18:44:10.011Z,99955.56
2022-12-11T18:46:40.378Z,99951.31
2022-12-11T18:49:09.833Z,99957.84
2022-12-11T18:51:37.844Z,99950.00
2022-12-11T18:54:05.741Z,99950.84
2022-12-11T18:56:33.678Z,99950.25
2022-12-11T18:59:01.928Z,99948.47
2022-12-11T19:01:33.235Z,99944.91
2022-12-11T19:04:06.670Z,99943.13
2022-12-11T19:06:37.150Z,99944.09
2022-12-11T19:09:06.773Z,99945.84
2022-12-11T19:11:36.104Z,99945.75
2022-12-11T19:14:05.518Z,99949.03
2022-12-11T19:16:36.200Z,99951.41
2022-12-11T19:19:07.363Z,99955.66
2022-12-11T19:21:36.677Z,99961.72
2022-12-11T19:24:04.731Z,99953.78
2022-12-11T19:26:32.571Z,99956.81
2022-12-11T19:29:00.763Z,99954.22
2022-12-11T19:31:31.066Z,99950.78
2022-12-11T19:33:59.315Z,99953.38
2022-12-11T19:36:30.362Z,99956.13
2022-12-11T19:39:01.941Z,99953.50
2022-12-11T19:41:31.466Z,99959.66
2022-12-11T19:44:00.684Z,99963.38
2022-12-11T19:46:30.122Z,99961.59
2022-12-11T19:48:59.388Z,99967.66
2022-12-11T19:51:31.220Z,99965.03
2022-12-11T19:54:00.830Z,99959.13
2022-12-11T19:56:28.493Z,99969.28
2022-12-11T19:58:56.506Z,99959.66
2022-12-11T20:01:28.449Z,99964.06
2022-12-11T20:03:58.568Z,99960.88
2022-12-11T20:06:30.850Z,99958.84
2022-12-11T20:08:59.498Z,99963.09
2022-12-11T20:11:27.634Z,99963.25
2022-12-11T20:13:56.345Z,99963.09
2022-12-11T20:16:53.375Z,99962.28
2022-12-11T20:19:12.469Z,99960.66
2022-12-11T20:21:42.182Z,99960.66
2022-12-11T20:24:10.138Z,99960.78
2022-12-11T20:26:38.359Z,99967.66
2022-12-11T20:29:08.339Z,99964.31
2022-12-11T20:31:37.479Z,99966.34
2022-12-11T20:34:06.944Z,99968.13
2022-12-11T20:36:35.283Z,99970.72
2022-12-11T20:39:05.018Z,99976.09
2022-12-11T20:41:32.746Z,99977.16
2022-12-11T20:44:00.550Z,99972.78
2022-12-11T20:46:28.859Z,99975.38
2022-12-11T20:48:59.445Z,99972.91
2022-12-11T20:51:28.064Z,99973.00
2022-12-11T20:53:59.359Z,99975.88
2022-12-11T20:56:32.041Z,99970.41
2022-12-11T20:59:00.836Z,99974.66
2022-12-11T21:01:31.779Z,99981.78
2022-12-11T21:04:00.400Z,99980.16
2022-12-11T21:06:31.419Z,99976.72
2022-12-11T21:09:00.361Z,99974.94
2022-12-11T21:11:29.737Z,99971.50
2022-12-11T21:13:57.482Z,99970.66
2022-12-11T21:16:25.582Z,99972.69
2022-12-11T21:18:55.292Z,99969.25
2022-12-11T21:21:23.047Z,99971.72
2022-12-11T21:23:50.829Z,99971.72
2022-12-11T21:26:18.608Z,99978.72
2022-12-11T21:28:47.879Z,99979.78
2022-12-11T21:31:18.139Z,99979.13
2022-12-11T21:33:46.500Z,99969.50
2022-12-11T21:36:15.881Z,99968.09
2022-12-11T21:38:46.256Z,99974.97
2022-12-11T21:41:16.026Z,99973.41
2022-12-11T21:44:14.664Z,99972.72
2022-12-11T21:46:34.486Z,99968.69
2022-12-11T21:49:02.296Z,99967.75
2022-12-11T21:51:37.643Z,99962.75
2022-12-11T21:54:13.139Z,99969.53
2022-12-11T21:56:41.728Z,99976.41
2022-12-11T21:59:09.678Z,99968.81
2022-12-11T22:01:42.068Z,99974.28
2022-12-11T22:04:11.471Z,99975.00
2022-12-11T22:06:40.208Z,99976.63
2022-12-11T22:09:07.954Z,99976.78
2022-12-11T22:11:36.324Z,99983.78
2022-12-11T22:14:04.554Z,99976.63
2022-12-11T22:16:32.268Z,99980.06
2022-12-11T22:19:01.516Z,99979.13
2022-12-11T22:21:29.644Z,99989.56
2022-12-11T22:23:57.377Z,99987.06
2022-12-11T22:26:26.934Z,99983.50
2022-12-11T22:28:55.154Z,99987.91
2022-12-11T22:31:25.374Z,99990.38
2022-12-11T22:33:54.920Z,99985.44
2022-12-11T22:36:25.847Z,99983.63
2022-12-11T22:38:53.876Z,99987.22
2022-12-11T22:41:25.252Z,99982.13
2022-12-11T22:43:53.301Z,99984.59
2022-12-11T22:46:23.816Z,99983.78
2022-12-11T22:48:53.399Z,99978.66
2022-12-11T22:51:22.063Z,99976.06
2022-12-11T22:53:51.440Z,99972.63
2022-12-11T22:56:19.195Z,99970.03
2022-12-11T22:58:46.994Z,99972.63
2022-12-11T23:01:17.126Z,99970.72
2022-12-11T23:03:44.932Z,99974.16
2022-12-11T23:06:15.535Z,99979.38
2022-12-11T23:08:44.181Z,99980.34
2022-12-11T23:11:15.396Z,99973.56
2022-12-11T23:13:43.251Z,99978.78
2022-12-11T23:16:11.630Z,99980.56
2022-12-11T23:18:40.083Z,99972.75
2022-12-11T23:21:08.990Z,99972.75
2022-12-11T23:23:36.813Z,99979.50
2022-12-11T23:26:07.295Z,99979.25
2022-12-11T23:28:36.391Z,99985.44
2022-12-11T23:31:04.278Z,99989.66
2022-12-11T23:33:32.283Z,99979.94
2022-12-11T23:36:01.105Z,99985.44
2022-12-11T23:38:28.880Z,99981.00
2022-12-11T23:40:56.805Z,99985.16
2022-12-11T23:43:24.505Z,99980.22
2022-12-11T23:45:53.626Z,99981.28
2022-12-11T23:48:21.497Z,99988.16
2022-12-11T23:50:49.211Z,99989.34
2022-12-11T23:53:17.079Z,99987.81
2022-12-11T23:55:46.399Z,99999.06
2022-12-11T23:58:15.218Z,99997.16
